Time;durP1;ratioP1;P1;durP2;ratioP2;P2;SDS_P1;SDS_P2;PMS_P1;PMS_P2;Temp;Humidity;BMP_temperature;BMP_pressure;BME280_temperature;BME280_humidity;BME280_pressure;Samples;Min_cycle;Max_cycle;Signal;HPM_P1;HPM_P2
2021/10/30 00:00:14;;;;;;;24.13;15.07;;;5.70;99.90;;;;;;6126542;23;20078;-88
2021/10/30 00:03:01;;;;;;;25.65;16.45;;;5.60;99.90;;;;;;6127324;23;20041;-88
2021/10/30 00:05:50;;;;;;;25.77;16.83;;;5.60;99.90;;;;;;6124448;23;20061;-88
2021/10/30 00:08:37;;;;;;;25.83;16.23;;;5.70;99.90;;;;;;6123937;23;20037;-88
2021/10/30 00:11:25;;;;;;;27.38;15.98;;;5.60;99.90;;;;;;6101500;23;20049;-88
2021/10/30 00:14:12;;;;;;;25.63;15.32;;;5.50;99.90;;;;;;6123941;23;20085;-88
2021/10/30 00:17:00;;;;;;;25.88;15.88;;;5.40;99.90;;;;;;6102232;23;20492;-85
2021/10/30 00:19:49;;;;;;;23.55;16.58;;;5.30;99.90;;;;;;6123924;23;20113;-87
2021/10/30 00:22:36;;;;;;;24.65;16.85;;;5.20;99.90;;;;;;6104748;23;20105;-88
2021/10/30 00:25:24;;;;;;;27.40;16.17;;;5.10;99.90;;;;;;6139550;23;20034;-88
2021/10/30 00:28:11;;;;;;;24.98;16.33;;;5.00;99.90;;;;;;6138713;23;20026;-86
2021/10/30 00:30:58;;;;;;;25.15;15.73;;;4.80;99.90;;;;;;6137796;23;20090;-88
2021/10/30 00:33:47;;;;;;;30.60;17.20;;;4.80;99.90;;;;;;6141704;23;20038;-88
2021/10/30 00:36:34;;;;;;;31.50;19.85;;;4.70;99.90;;;;;;6128189;23;20034;-88
2021/10/30 00:39:21;;;;;;;27.33;17.92;;;4.70;99.90;;;;;;6116365;23;20042;-88
2021/10/30 00:42:09;;;;;;;33.70;19.45;;;4.60;99.90;;;;;;6135980;23;20104;-87
2021/10/30 00:44:56;;;;;;;31.13;19.25;;;4.60;99.90;;;;;;6115282;23;20026;-87
2021/10/30 00:47:44;;;;;;;32.72;19.95;;;4.50;99.90;;;;;;6134040;23;20066;-87
2021/10/30 00:50:34;;;;;;;30.92;18.23;;;4.50;99.90;;;;;;6110042;23;20081;-88
2021/10/30 00:53:30;;;;;;;31.75;18.48;;;4.50;99.90;;;;;;6106960;23;20085;-87
2021/10/30 00:56:20;;;;;;;30.25;18.52;;;4.40;99.90;;;;;;6122366;23;20022;-88
2021/10/30 00:59:11;;;;;;;32.20;18.25;;;4.40;99.90;;;;;;6122712;23;20050;-88
2021/10/30 01:01:58;;;;;;;31.40;17.90;;;4.20;99.90;;;;;;6122287;23;20389;-88
2021/10/30 01:04:46;;;;;;;31.98;17.92;;;4.20;99.90;;;;;;6103600;23;20082;-88
2021/10/30 01:07:34;;;;;;;31.00;18.48;;;4.10;99.90;;;;;;6102666;23;20034;-86
2021/10/30 01:10:21;;;;;;;31.20;18.67;;;4.10;99.90;;;;;;6123860;23;20033;-89
2021/10/30 01:13:08;;;;;;;30.73;17.50;;;4.00;99.90;;;;;;6102703;23;20170;-88
2021/10/30 01:15:58;;;;;;;29.95;19.35;;;4.00;99.90;;;;;;6084145;23;20026;-88
2021/10/30 01:18:45;;;;;;;34.75;20.35;;;4.00;99.90;;;;;;6124420;23;20054;-87
2021/10/30 01:21:35;;;;;;;33.22;18.80;;;4.00;99.90;;;;;;6122954;23;20057;-88
2021/10/30 01:24:25;;;;;;;34.75;20.38;;;4.00;99.90;;;;;;6123726;23;20134;-88
2021/10/30 01:27:18;;;;;;;32.33;20.40;;;4.00;99.90;;;;;;6125400;23;20034;-86
2021/10/30 01:30:06;;;;;;;39.83;23.13;;;4.00;99.90;;;;;;6124282;23;20433;-88
2021/10/30 01:33:03;;;;;;;43.97;23.45;;;3.90;99.90;;;;;;6122319;23;20158;-87
2021/10/30 01:35:50;;;;;;;41.30;23.90;;;4.00;99.90;;;;;;6102796;23;20029;-87
2021/10/30 01:38:40;;;;;;;46.10;25.35;;;4.10;99.90;;;;;;6123343;23;20026;-88
2021/10/30 01:41:27;;;;;;;40.50;24.17;;;4.10;99.90;;;;;;6124435;23;20378;-87
2021/10/30 01:44:16;;;;;;;45.75;24.50;;;4.10;99.90;;;;;;6123692;23;20029;-87
2021/10/30 01:47:04;;;;;;;41.10;25.10;;;4.10;99.90;;;;;;6100948;23;20058;-87
2021/10/30 01:49:51;;;;;;;42.97;24.00;;;4.20;99.90;;;;;;6122820;23;20589;-88
2021/10/30 01:52:39;;;;;;;47.08;23.48;;;4.10;99.90;;;;;;6103927;23;20363;-87
2021/10/30 01:55:28;;;;;;;36.08;23.42;;;4.10;99.90;;;;;;6102164;23;20041;-87
2021/10/30 01:58:20;;;;;;;40.33;23.17;;;4.00;99.90;;;;;;6123456;23;20158;-87
2021/10/30 02:01:09;;;;;;;42.10;24.17;;;4.00;99.90;;;;;;6124284;23;20116;-87
2021/10/30 02:03:56;;;;;;;38.30;22.63;;;3.90;99.90;;;;;;6121977;23;20036;-88
2021/10/30 02:06:44;;;;;;;38.80;23.60;;;3.90;99.90;;;;;;6121778;23;20033;-87
2021/10/30 02:09:31;;;;;;;38.15;23.95;;;3.80;99.90;;;;;;6083143;23;20161;-89
2021/10/30 02:12:18;;;;;;;42.13;23.13;;;3.80;99.90;;;;;;6084535;23;20061;-88
2021/10/30 02:15:07;;;;;;;43.92;23.70;;;3.70;99.90;;;;;;6083364;23;20026;-88
2021/10/30 02:17:56;;;;;;;43.20;24.27;;;3.70;99.90;;;;;;6125752;23;20057;-88
2021/10/30 02:20:45;;;;;;;47.92;25.20;;;3.70;99.90;;;;;;6124163;23;20057;-86
2021/10/30 02:23:34;;;;;;;43.95;24.30;;;3.60;99.90;;;;;;6121750;23;20093;-87
2021/10/30 02:26:21;;;;;;;47.63;27.02;;;3.60;99.90;;;;;;6123102;23;20053;-87
2021/10/30 02:29:09;;;;;;;42.95;25.80;;;3.50;99.90;;;;;;6122773;23;20121;-86
2021/10/30 02:32:00;;;;;;;43.35;24.95;;;3.50;99.90;;;;;;6100753;23;20025;-87
2021/10/30 02:34:47;;;;;;;48.92;24.70;;;3.60;99.90;;;;;;6103972;23;20550;-87
2021/10/30 02:37:35;;;;;;;49.40;25.60;;;3.60;99.90;;;;;;6101482;23;20086;-87
2021/10/30 02:40:24;;;;;;;45.60;26.15;;;3.50;99.90;;;;;;6123398;23;20101;-87
2021/10/30 02:43:11;;;;;;;46.78;27.67;;;3.60;99.90;;;;;;6121709;23;20026;-87
2021/10/30 02:46:01;;;;;;;56.33;29.63;;;3.60;99.90;;;;;;6103447;23;20057;-88
2021/10/30 02:48:50;;;;;;;62.53;33.08;;;3.90;99.90;;;;;;6100159;23;20030;-88
2021/10/30 02:51:37;;;;;;;54.95;30.52;;;4.20;99.90;;;;;;6082275;23;20146;-88
2021/10/30 02:54:27;;;;;;;55.42;29.50;;;4.20;99.90;;;;;;6095125;23;20058;-86
2021/10/30 02:57:14;;;;;;;52.25;30.00;;;4.10;99.90;;;;;;6101698;23;20105;-87
2021/10/30 03:00:07;;;;;;;49.92;28.52;;;4.10;99.90;;;;;;6130101;23;20450;-87
2021/10/30 03:02:55;;;;;;;48.95;26.83;;;4.00;99.90;;;;;;6131114;23;20029;-87
2021/10/30 03:05:44;;;;;;;45.20;26.65;;;3.90;99.90;;;;;;6131014;23;20025;-87
2021/10/30 03:08:32;;;;;;;46.95;27.40;;;3.80;99.90;;;;;;6103920;23;20053;-88
2021/10/30 03:11:19;;;;;;;45.75;27.42;;;3.70;99.90;;;;;;6082123;23;20042;-87
2021/10/30 03:14:06;;;;;;;43.70;26.08;;;3.70;99.90;;;;;;6103873;23;20109;-88
2021/10/30 03:16:56;;;;;;;42.97;25.15;;;3.60;99.90;;;;;;6125439;23;20466;-87
2021/10/30 03:19:43;;;;;;;40.28;23.20;;;3.60;99.90;;;;;;6103704;23;20077;-87
2021/10/30 03:22:33;;;;;;;40.17;24.50;;;3.40;99.90;;;;;;6085295;23;20402;-87
2021/10/30 03:25:20;;;;;;;39.05;23.70;;;3.40;99.90;;;;;;6126234;23;20026;-87
2021/10/30 03:28:10;;;;;;;39.47;23.63;;;3.30;99.90;;;;;;6103719;23;20054;-87
2021/10/30 03:30:58;;;;;;;45.50;25.35;;;3.30;99.90;;;;;;6124870;23;20033;-88
2021/10/30 03:33:48;;;;;;;46.20;26.63;;;3.30;99.90;;;;;;6105759;23;20060;-87
2021/10/30 03:36:39;;;;;;;45.78;27.65;;;3.30;99.90;;;;;;6105126;23;20082;-87
2021/10/30 03:39:28;;;;;;;48.72;26.83;;;3.40;99.90;;;;;;6127720;23;20026;-87
2021/10/30 03:42:16;;;;;;;49.25;27.52;;;3.40;99.90;;;;;;6105056;23;20187;-87
2021/10/30 03:45:08;;;;;;;42.45;24.90;;;3.30;99.90;;;;;;6086288;23;20105;-87
2021/10/30 03:48:01;;;;;;;42.58;25.08;;;3.30;99.90;;;;;;6125125;23;20029;-87
2021/10/30 03:50:51;;;;;;;45.50;25.17;;;3.30;99.90;;;;;;6108377;23;20045;-87
2021/10/30 03:53:38;;;;;;;43.45;24.83;;;3.10;99.90;;;;;;6125952;23;20133;-87
2021/10/30 03:56:25;;;;;;;42.03;24.52;;;3.10;99.90;;;;;;6105023;23;20029;-88
2021/10/30 03:59:12;;;;;;;50.28;26.05;;;3.00;99.90;;;;;;6102327;23;20471;-88
2021/10/30 04:02:02;;;;;;;49.35;25.50;;;3.00;99.90;;;;;;6105428;23;20062;-87
2021/10/30 04:04:50;;;;;;;41.78;24.20;;;3.00;99.90;;;;;;6107089;23;20025;-87
2021/10/30 04:07:37;;;;;;;46.92;25.40;;;2.90;99.90;;;;;;6104069;23;20093;-87
2021/10/30 04:10:26;;;;;;;46.92;25.67;;;2.80;99.90;;;;;;6105151;23;20025;-86
2021/10/30 04:13:14;;;;;;;48.13;24.95;;;2.80;99.90;;;;;;6108506;23;20026;-86
2021/10/30 04:16:01;;;;;;;42.45;25.13;;;2.80;99.90;;;;;;6109186;23;20053;-87
2021/10/30 04:18:50;;;;;;;51.10;24.83;;;2.70;99.90;;;;;;6127757;23;20106;-87
2021/10/30 04:21:41;;;;;;;38.25;22.90;;;2.60;99.90;;;;;;6130057;23;20116;-87
2021/10/30 04:24:28;;;;;;;43.72;25.27;;;2.60;99.90;;;;;;6128140;23;20318;-87
2021/10/30 04:27:15;;;;;;;45.65;25.42;;;2.60;99.90;;;;;;6102947;23;20036;-87
2021/10/30 04:30:03;;;;;;;44.58;24.17;;;2.60;99.90;;;;;;6126891;23;20034;-87
2021/10/30 04:32:51;;;;;;;46.28;25.50;;;2.50;99.90;;;;;;6129925;23;20129;-87
2021/10/30 04:35:41;;;;;;;49.63;24.98;;;2.40;99.90;;;;;;6089642;23;20101;-86
2021/10/30 04:38:28;;;;;;;49.75;24.65;;;2.40;99.90;;;;;;6130025;23;20022;-87
2021/10/30 04:41:15;;;;;;;52.65;26.35;;;2.40;99.90;;;;;;6130020;23;20032;-87
2021/10/30 04:44:07;;;;;;;51.58;25.50;;;2.30;99.90;;;;;;6085881;23;20021;-86
2021/10/30 04:46:54;;;;;;;46.70;25.13;;;2.30;99.90;;;;;;6110836;23;20054;-87
2021/10/30 04:49:47;;;;;;;54.53;26.00;;;2.30;99.90;;;;;;6112400;23;20125;-87
2021/10/30 04:52:36;;;;;;;50.88;27.98;;;2.30;99.90;;;;;;6133041;23;20101;-86
2021/10/30 04:55:23;;;;;;;56.20;28.70;;;2.30;99.90;;;;;;6114309;23;20029;-86
2021/10/30 04:58:10;;;;;;;57.10;30.20;;;2.40;99.90;;;;;;6129353;23;20097;-86
2021/10/30 05:01:02;;;;;;;55.67;29.77;;;2.60;99.90;;;;;;6133400;23;20030;-86
2021/10/30 05:03:50;;;;;;;61.15;30.60;;;2.60;99.90;;;;;;6132477;23;20105;-86
2021/10/30 05:06:37;;;;;;;59.60;30.67;;;2.60;99.90;;;;;;6134332;23;20026;-86
2021/10/30 05:09:27;;;;;;;56.05;30.05;;;2.70;99.90;;;;;;6092398;23;20382;-86
2021/10/30 05:12:14;;;;;;;51.10;28.73;;;2.60;99.90;;;;;;6137015;23;20049;-86
2021/10/30 05:15:03;;;;;;;54.67;28.67;;;2.50;99.90;;;;;;6107677;23;20378;-87
2021/10/30 05:17:56;;;;;;;53.05;28.77;;;2.40;99.90;;;;;;6106137;23;20045;-86
2021/10/30 05:20:43;;;;;;;56.05;27.83;;;2.40;99.90;;;;;;6121027;23;20022;-86
2021/10/30 05:23:37;;;;;;;55.53;28.23;;;2.40;99.90;;;;;;6139670;23;20030;-85
2021/10/30 05:26:27;;;;;;;55.08;28.70;;;2.30;99.90;;;;;;6117891;23;20026;-86
2021/10/30 05:29:14;;;;;;;55.13;28.52;;;2.30;99.90;;;;;;6138879;23;20081;-86
2021/10/30 05:32:01;;;;;;;54.83;28.83;;;2.30;99.90;;;;;;6102985;23;20034;-87
2021/10/30 05:34:50;;;;;;;59.85;30.15;;;2.40;99.90;;;;;;6119800;23;20087;-86
2021/10/30 05:37:40;;;;;;;59.00;30.30;;;2.40;99.90;;;;;;6116765;23;20046;-88
2021/10/30 05:40:27;;;;;;;62.75;32.55;;;2.50;99.90;;;;;;6136137;23;20066;-86
2021/10/30 05:43:15;;;;;;;61.88;31.73;;;2.70;99.90;;;;;;6138301;23;20030;-87
2021/10/30 05:46:03;;;;;;;69.80;35.00;;;2.80;99.90;;;;;;6106220;23;20057;-87
2021/10/30 05:48:54;;;;;;;56.90;31.90;;;2.80;99.90;;;;;;6124034;23;20034;-87
2021/10/30 05:51:41;;;;;;;55.22;30.38;;;2.90;99.90;;;;;;6104521;23;20037;-87
2021/10/30 05:54:28;;;;;;;56.97;29.65;;;3.00;99.90;;;;;;6124901;23;20030;-87
2021/10/30 05:57:16;;;;;;;59.25;29.55;;;2.90;99.90;;;;;;6125190;23;20429;-86
2021/10/30 06:00:04;;;;;;;55.70;29.52;;;2.90;99.90;;;;;;6105424;23;20022;-86
2021/10/30 06:02:51;;;;;;;52.60;29.77;;;2.80;99.90;;;;;;6125948;23;20034;-88
2021/10/30 06:05:39;;;;;;;58.75;30.08;;;2.70;99.90;;;;;;6126974;23;20041;-87
2021/10/30 06:08:29;;;;;;;56.28;27.88;;;2.80;99.90;;;;;;6129430;23;20085;-87
2021/10/30 06:11:17;;;;;;;49.72;27.35;;;2.80;99.90;;;;;;6104582;23;20041;-87
2021/10/30 06:14:06;;;;;;;55.22;27.48;;;2.70;99.90;;;;;;6104095;23;20084;-86
2021/10/30 06:16:56;;;;;;;58.88;27.92;;;2.70;99.90;;;;;;6124617;23;20123;-87
2021/10/30 06:19:43;;;;;;;59.63;29.13;;;2.70;99.90;;;;;;6126101;23;20101;-86
2021/10/30 06:22:30;;;;;;;51.20;28.75;;;2.70;99.90;;;;;;6102298;23;20128;-85
2021/10/30 06:25:17;;;;;;;53.88;27.52;;;2.60;99.90;;;;;;6102655;23;20061;-85
2021/10/30 06:28:57;;;;;;;55.85;28.65;;;2.60;99.90;;;;;;6125347;23;20058;-85
2021/10/30 06:32:22;;;;;;;51.10;28.00;;;2.60;99.90;;;;;;5998705;23;20216;-85
2021/10/30 06:36:22;;;;;;;56.42;29.50;;;2.60;99.90;;;;;;6066881;23;20430;-85
2021/10/30 06:39:28;;;;;;;58.08;30.95;;;2.80;99.90;;;;;;6085220;23;20081;-85
2021/10/30 06:42:30;;;;;;;56.25;32.22;;;2.80;99.90;;;;;;6086168;23;20044;-85
2021/10/30 06:45:55;;;;;;;55.72;32.30;;;2.90;99.90;;;;;;6106223;23;20026;-84
2021/10/30 06:49:15;;;;;;;57.83;31.40;;;2.90;99.90;;;;;;6084738;23;20034;-86
2021/10/30 06:56:01;;;;;;;49.40;29.73;;;3.20;99.90;;;;;;6124602;23;20037;-87
2021/10/30 06:58:49;;;;;;;52.30;29.05;;;3.70;99.90;;;;;;6130213;23;20037;-87
2021/10/30 07:01:36;;;;;;;50.13;28.67;;;4.30;99.90;;;;;;6126864;23;20025;-89
2021/10/30 07:04:26;;;;;;;44.08;27.33;;;4.90;99.90;;;;;;6126187;23;20039;-84
2021/10/30 07:07:17;;;;;;;38.10;24.98;;;5.40;99.90;;;;;;6106494;23;20029;-87
2021/10/30 07:10:06;;;;;;;32.33;20.10;;;6.20;99.90;;;;;;6126064;23;20030;-86
2021/10/30 07:12:53;;;;;;;24.65;15.98;;;6.80;99.90;;;;;;6126888;23;20041;-85
2021/10/30 07:15:41;;;;;;;22.20;14.23;;;7.10;99.90;;;;;;6090794;23;20338;-85
2021/10/30 07:18:29;;;;;;;28.70;20.42;;;7.40;99.90;;;;;;6126213;23;20022;-85
2021/10/30 07:21:21;;;;;;;24.88;16.23;;;7.10;99.90;;;;;;6105753;23;20022;-85
2021/10/30 07:24:13;;;;;;;24.83;15.93;;;6.90;99.90;;;;;;6124377;23;20186;-85
2021/10/30 07:27:01;;;;;;;23.38;15.13;;;7.00;99.90;;;;;;6124611;23;20354;-86
2021/10/30 07:29:52;;;;;;;25.42;14.85;;;7.20;99.90;;;;;;6105384;23;20026;-85
2021/10/30 07:32:42;;;;;;;24.45;14.27;;;7.40;99.90;;;;;;6126666;23;20026;-86
2021/10/30 07:35:32;;;;;;;25.27;15.50;;;7.40;99.90;;;;;;6126691;23;20426;-84
2021/10/30 07:38:22;;;;;;;22.65;14.35;;;7.50;99.90;;;;;;6125300;23;20335;-85
2021/10/30 07:41:09;;;;;;;21.13;14.00;;;7.60;99.90;;;;;;6105191;23;20026;-85
2021/10/30 07:43:57;;;;;;;28.73;17.33;;;7.70;99.90;;;;;;6125845;23;20081;-87
2021/10/30 07:46:44;;;;;;;31.50;17.33;;;7.60;99.90;;;;;;6125500;23;20130;-86
2021/10/30 07:49:35;;;;;;;26.08;15.90;;;7.40;99.90;;;;;;6121096;23;20121;-86
2021/10/30 07:52:24;;;;;;;22.95;15.73;;;7.40;99.90;;;;;;6126687;23;20038;-85
2021/10/30 07:55:12;;;;;;;24.33;15.25;;;7.50;99.90;;;;;;6125402;23;20101;-87
2021/10/30 07:57:59;;;;;;;23.23;14.98;;;7.70;99.90;;;;;;6139457;23;20445;-85
2021/10/30 08:00:46;;;;;;;26.75;15.70;;;7.80;99.90;;;;;;6129150;23;20108;-86
2021/10/30 08:03:37;;;;;;;20.15;13.63;;;8.00;99.90;;;;;;6122096;23;20037;-86
2021/10/30 08:06:26;;;;;;;21.55;13.80;;;8.20;99.90;;;;;;6106244;23;20058;-86
2021/10/30 08:09:14;;;;;;;20.73;13.40;;;8.40;99.90;;;;;;6126829;23;20101;-86
2021/10/30 08:12:01;;;;;;;20.63;13.35;;;8.60;99.90;;;;;;6126106;23;20037;-86
2021/10/30 08:14:51;;;;;;;27.38;13.30;;;8.90;99.90;;;;;;6125420;23;20044;-88
2021/10/30 08:17:40;;;;;;;21.23;13.02;;;9.10;99.90;;;;;;6105002;23;20034;-87
2021/10/30 08:20:31;;;;;;;28.85;14.65;;;9.40;99.90;;;;;;6101437;23;20477;-88
2021/10/30 08:23:23;;;;;;;32.30;17.50;;;9.30;99.90;;;;;;6105615;23;20093;-88
2021/10/30 08:26:10;;;;;;;29.75;17.88;;;9.00;99.90;;;;;;6126091;23;20026;-88
2021/10/30 08:29:04;;;;;;;30.98;18.08;;;8.60;99.90;;;;;;6127159;23;20081;-87
2021/10/30 08:31:53;;;;;;;27.20;16.83;;;8.60;99.90;;;;;;6126424;23;20474;-88
2021/10/30 08:34:53;;;;;;;27.20;16.73;;;8.80;99.90;;;;;;6124343;23;20034;-88
2021/10/30 08:37:43;;;;;;;20.70;14.05;;;9.00;99.90;;;;;;6103248;23;20026;-87
2021/10/30 08:40:30;;;;;;;29.30;16.83;;;9.30;99.90;;;;;;6123430;23;20133;-87
2021/10/30 08:43:28;;;;;;;28.65;17.10;;;9.50;99.90;;;;;;6126955;23;20089;-87
2021/10/30 08:46:18;;;;;;;26.98;17.17;;;9.70;99.90;;;;;;6124880;23;20092;-87
2021/10/30 08:49:10;;;;;;;28.55;18.02;;;9.80;99.90;;;;;;6126589;23;20030;-87
2021/10/30 08:52:06;;;;;;;17.27;11.82;;;10.00;99.90;;;;;;6096409;23;20030;-86
2021/10/30 08:54:53;;;;;;;18.17;11.40;;;10.10;99.90;;;;;;6098579;23;20094;-86
2021/10/30 08:57:50;;;;;;;24.92;15.88;;;10.30;99.90;;;;;;6079893;23;20037;-88
2021/10/30 09:00:46;;;;;;;40.85;23.52;;;10.40;99.90;;;;;;6077431;23;20048;-88
2021/10/30 09:03:39;;;;;;;34.75;20.95;;;10.30;99.90;;;;;;6095687;23;20041;-87
2021/10/30 09:06:37;;;;;;;;;;;10.10;99.90;;;;;;6074372;23;20026;-88
2021/10/30 09:09:33;;;;;;;33.20;19.50;;;10.00;99.90;;;;;;6095601;23;19932;-88
2021/10/30 09:12:29;;;;;;;31.25;18.85;;;9.90;99.90;;;;;;6095015;23;20026;-87
2021/10/30 09:15:47;;;;;;;26.35;17.13;;;9.80;99.90;;;;;;6096284;23;20027;-88
2021/10/30 09:18:38;;;;;;;27.42;16.67;;;9.70;99.90;;;;;;6095369;23;20456;-87
2021/10/30 09:21:30;;;;;;;28.60;17.48;;;9.60;99.90;;;;;;6096110;23;20326;-86
2021/10/30 09:24:21;;;;;;;28.80;17.08;;;9.50;99.90;;;;;;6076601;23;20030;-87
2021/10/30 09:27:09;;;;;;;28.58;15.70;;;9.60;99.90;;;;;;6078333;23;20027;-87
2021/10/30 09:29:58;;;;;;;26.58;16.25;;;9.70;99.90;;;;;;6073919;23;20030;-86
2021/10/30 09:33:18;;;;;;;19.05;11.98;;;9.70;99.90;;;;;;6074594;23;20034;-87
2021/10/30 09:36:12;;;;;;;15.65;10.23;;;9.70;99.90;;;;;;6087992;23;20489;-86
2021/10/30 09:39:08;;;;;;;17.13;10.07;;;9.70;99.90;;;;;;6092906;23;20026;-85
2021/10/30 09:41:56;;;;;;;15.95;9.82;;;9.70;99.90;;;;;;6075706;23;20027;-86
2021/10/30 09:44:44;;;;;;;16.70;9.60;;;9.70;99.90;;;;;;6046900;23;20347;-84
2021/10/30 09:47:31;;;;;;;16.40;10.85;;;9.70;99.90;;;;;;6047497;23;20074;-84
2021/10/30 09:50:27;;;;;;;15.30;10.30;;;9.70;99.90;;;;;;6047067;23;20109;-85
2021/10/30 09:53:26;;;;;;;12.00;8.10;;;9.70;99.90;;;;;;6050388;23;20045;-85
2021/10/30 09:56:16;;;;;;;11.15;7.63;;;9.70;99.90;;;;;;6044047;23;20076;-85
2021/10/30 09:59:05;;;;;;;13.38;8.55;;;9.60;99.90;;;;;;6068240;23;20034;-86
2021/10/30 10:01:54;;;;;;;17.00;9.15;;;9.60;99.90;;;;;;6048524;23;20117;-85
2021/10/30 10:04:44;;;;;;;14.40;9.13;;;9.50;99.90;;;;;;6069386;23;20031;-85
2021/10/30 10:07:35;;;;;;;17.98;11.02;;;9.50;99.90;;;;;;6053524;23;20026;-83
2021/10/30 10:10:23;;;;;;;19.70;10.95;;;9.50;99.90;;;;;;6069487;23;20079;-83
2021/10/30 10:13:12;;;;;;;18.50;11.82;;;9.50;99.90;;;;;;6060470;23;20031;-84
2021/10/30 10:15:59;;;;;;;28.33;13.40;;;9.60;99.90;;;;;;6057768;23;20458;-84
2021/10/30 10:18:49;;;;;;;28.38;15.30;;;9.60;99.90;;;;;;6080301;23;20034;-84
2021/10/30 10:21:42;;;;;;;20.88;11.02;;;9.70;99.90;;;;;;6078810;23;20043;-85
2021/10/30 10:24:36;;;;;;;21.45;11.50;;;9.70;99.90;;;;;;6063536;23;20010;-83
2021/10/30 10:27:38;;;;;;;23.98;13.32;;;9.90;99.90;;;;;;6070853;23;20043;-88
2021/10/30 10:30:25;;;;;;;27.75;13.40;;;9.90;99.90;;;;;;6079627;23;20022;-87
2021/10/30 10:33:17;;;;;;;22.13;12.25;;;10.00;99.90;;;;;;6059281;23;20031;-85
2021/10/30 10:36:20;;;;;;;37.65;15.65;;;10.10;99.90;;;;;;6077279;23;20027;-87
2021/10/30 10:39:28;;;;;;;55.97;16.67;;;10.10;99.90;;;;;;6079532;23;20046;-87
2021/10/30 10:42:40;;;;;;;25.92;12.93;;;10.00;99.90;;;;;;6106058;23;20030;-86
2021/10/30 10:45:50;;;;;;;27.13;12.27;;;10.00;99.90;;;;;;6097929;23;20023;-86
2021/10/30 10:48:43;;;;;;;29.02;12.93;;;9.90;99.90;;;;;;6094813;23;20049;-86
2021/10/30 10:51:31;;;;;;;31.10;14.88;;;10.00;99.90;;;;;;6075237;23;20121;-86
2021/10/30 10:54:18;;;;;;;35.13;14.65;;;10.00;99.90;;;;;;6074295;23;20470;-86
2021/10/30 10:57:23;;;;;;;36.45;15.45;;;10.00;99.90;;;;;;6074632;23;20034;-87
2021/10/30 11:00:16;;;;;;;42.90;16.73;;;9.90;99.90;;;;;;6095092;23;20046;-87
2021/10/30 11:03:05;;;;;;;36.35;15.10;;;9.70;99.90;;;;;;6098280;23;20046;-86
2021/10/30 11:05:57;;;;;;;30.40;15.23;;;9.70;99.90;;;;;;6075466;23;20312;-86
2021/10/30 11:08:47;;;;;;;29.10;16.73;;;9.80;99.90;;;;;;6093870;23;20085;-87
2021/10/30 11:11:35;;;;;;;31.65;16.60;;;9.80;99.90;;;;;;6093810;23;20230;-86
2021/10/30 11:14:26;;;;;;;28.52;15.77;;;9.90;99.90;;;;;;6094526;23;20037;-87
2021/10/30 11:17:14;;;;;;;32.10;18.73;;;10.00;99.90;;;;;;6092569;23;20045;-87
2021/10/30 11:20:17;;;;;;;27.35;16.27;;;10.10;99.90;;;;;;6074593;23;20026;-86
2021/10/30 11:23:10;;;;;;;26.50;13.65;;;10.30;99.90;;;;;;6095441;23;20049;-87
2021/10/30 11:26:10;;;;;;;22.58;11.70;;;10.40;99.90;;;;;;6095421;23;20058;-87
2021/10/30 11:29:11;;;;;;;23.90;14.32;;;10.40;99.90;;;;;;6075586;23;20033;-87
2021/10/30 11:32:04;;;;;;;27.23;15.52;;;10.50;99.90;;;;;;6073516;23;20094;-86
2021/10/30 11:34:56;;;;;;;22.17;14.57;;;10.50;99.90;;;;;;6077455;23;20065;-87
2021/10/30 11:37:43;;;;;;;20.83;14.77;;;10.40;99.90;;;;;;6095783;23;20065;-87
2021/10/30 11:41:00;;;;;;;25.75;15.90;;;10.30;99.90;;;;;;6094746;23;20026;-87
2021/10/30 11:43:49;;;;;;;25.23;16.17;;;10.10;99.90;;;;;;6097826;23;20018;-86
2021/10/30 11:46:55;;;;;;;26.08;14.57;;;10.00;99.90;;;;;;6076160;23;20034;-86
2021/10/30 11:49:43;;;;;;;32.63;15.35;;;9.80;99.90;;;;;;6094919;23;20334;-86
2021/10/30 11:52:31;;;;;;;25.42;13.88;;;9.70;99.90;;;;;;6096151;23;20042;-86
2021/10/30 11:55:26;;;;;;;27.48;14.57;;;9.50;99.90;;;;;;6076058;23;20037;-86
2021/10/30 11:58:34;;;;;;;34.30;19.80;;;9.30;99.90;;;;;;6096790;23;20049;-85
2021/10/30 12:01:26;;;;;;;31.00;20.17;;;9.00;99.90;;;;;;6075774;23;20026;-85
2021/10/30 12:04:24;;;;;;;33.90;22.77;;;8.80;99.90;;;;;;6099968;23;20026;-86
2021/10/30 12:07:28;;;;;;;30.98;20.58;;;8.70;99.90;;;;;;6097366;23;20139;-86
2021/10/30 12:10:22;;;;;;;31.88;18.63;;;8.70;99.90;;;;;;6096356;23;20034;-84
2021/10/30 12:13:10;;;;;;;33.83;20.58;;;8.70;99.90;;;;;;6076743;23;20022;-85
2021/10/30 12:15:59;;;;;;;34.95;22.80;;;8.80;99.90;;;;;;6078702;23;20117;-84
2021/10/30 12:18:47;;;;;;;34.35;22.15;;;8.80;99.90;;;;;;6077952;23;20022;-84
2021/10/30 12:21:38;;;;;;;38.65;22.73;;;8.90;99.90;;;;;;6097220;23;20054;-85
2021/10/30 12:24:28;;;;;;;34.00;23.15;;;9.00;99.90;;;;;;6056713;23;20046;-83
2021/10/30 12:27:15;;;;;;;40.92;24.05;;;9.10;99.90;;;;;;6054339;23;20109;-85
2021/10/30 12:30:12;;;;;;;39.72;25.35;;;9.20;99.90;;;;;;6096080;23;20035;-85
2021/10/30 12:33:10;;;;;;;35.00;23.15;;;9.30;99.90;;;;;;6095607;23;20497;-85
2021/10/30 12:35:57;;;;;;;38.42;22.65;;;9.40;99.90;;;;;;6098641;23;20058;-85
2021/10/30 12:38:44;;;;;;;26.60;20.40;;;9.40;99.90;;;;;;6078076;23;20407;-85
2021/10/30 12:41:32;;;;;;;30.48;19.48;;;9.50;99.90;;;;;;6079490;23;20026;-84
2021/10/30 12:44:30;;;;;;;27.02;17.15;;;9.50;99.90;;;;;;6100797;23;20124;-84
2021/10/30 12:47:20;;;;;;;27.17;17.98;;;9.50;99.90;;;;;;6060114;23;20046;-85
2021/10/30 12:50:11;;;;;;;28.35;17.98;;;9.40;99.90;;;;;;6103464;23;20090;-85
2021/10/30 12:52:59;;;;;;;26.05;17.63;;;9.40;99.90;;;;;;6059372;23;20102;-84
2021/10/30 12:56:01;;;;;;;27.02;18.05;;;9.40;99.90;;;;;;6076709;23;20042;-84
2021/10/30 12:59:01;;;;;;;24.48;18.67;;;9.40;99.90;;;;;;6096716;23;20121;-85
2021/10/30 13:01:56;;;;;;;29.45;20.98;;;9.40;99.90;;;;;;6095250;23;20394;-85
2021/10/30 13:04:44;;;;;;;43.20;27.60;;;9.40;99.90;;;;;;6073752;23;20054;-85
2021/10/30 13:07:32;;;;;;;57.05;35.97;;;9.40;99.90;;;;;;6057462;23;20026;-85
2021/10/30 13:10:28;;;;;;;47.92;31.58;;;9.30;99.90;;;;;;6076014;23;20113;-85
2021/10/30 13:13:15;;;;;;;43.42;28.52;;;9.20;99.90;;;;;;6095277;23;20453;-85
2021/10/30 13:16:03;;;;;;;23.73;15.32;;;9.20;99.90;;;;;;6092862;23;20097;-85
2021/10/30 13:18:50;;;;;;;19.77;12.20;;;9.00;99.90;;;;;;6077367;23;20038;-85
2021/10/30 13:21:37;;;;;;;17.33;10.95;;;8.90;99.90;;;;;;6076506;23;20038;-85
2021/10/30 13:24:24;;;;;;;18.30;12.13;;;8.90;99.90;;;;;;6076497;23;20026;-84
2021/10/30 13:27:12;;;;;;;19.50;12.38;;;8.80;99.90;;;;;;6096194;23;20117;-84
2021/10/30 13:30:00;;;;;;;20.40;13.55;;;8.70;99.90;;;;;;6098764;23;20034;-84
2021/10/30 13:32:50;;;;;;;20.75;13.10;;;8.70;99.90;;;;;;6096938;23;20091;-84
2021/10/30 13:35:38;;;;;;;31.25;18.45;;;8.60;99.90;;;;;;6096590;23;20045;-84
2021/10/30 13:38:25;;;;;;;37.67;25.27;;;8.60;99.90;;;;;;6075524;23;20038;-85
2021/10/30 13:41:13;;;;;;;38.42;21.38;;;8.70;99.90;;;;;;6076660;23;20097;-82
2021/10/30 13:44:02;;;;;;;32.47;18.77;;;8.70;99.90;;;;;;6094120;23;20050;-84
2021/10/30 13:46:51;;;;;;;35.22;20.77;;;8.70;99.90;;;;;;6074935;23;20033;-84
2021/10/30 13:49:41;;;;;;;32.70;18.20;;;8.90;99.90;;;;;;6096367;23;20126;-83
2021/10/30 13:52:32;;;;;;;28.27;16.92;;;8.90;99.90;;;;;;6074562;23;20314;-84
2021/10/30 13:55:38;;;;;;;20.95;14.55;;;9.00;99.90;;;;;;6093929;23;20027;-85
2021/10/30 13:58:35;;;;;;;28.15;15.50;;;9.00;99.90;;;;;;6074806;23;20338;-84
2021/10/30 14:01:23;;;;;;;22.98;15.43;;;9.10;99.90;;;;;;6094441;23;20050;-85
2021/10/30 14:04:13;;;;;;;25.60;17.02;;;9.20;99.90;;;;;;6095535;23;20054;-84
2021/10/30 14:07:01;;;;;;;23.70;17.02;;;9.30;99.90;;;;;;6073685;23;20022;-84
2021/10/30 14:09:49;;;;;;;32.35;20.65;;;9.60;99.90;;;;;;6095102;23;20031;-83
2021/10/30 14:12:40;;;;;;;33.33;24.45;;;9.70;99.90;;;;;;6095124;23;20370;-85
2021/10/30 14:15:32;;;;;;;32.40;24.83;;;9.70;99.90;;;;;;6095622;23;20034;-83
2021/10/30 14:18:27;;;;;;;38.80;25.63;;;9.70;99.90;;;;;;6094932;23;20125;-84
2021/10/30 14:21:17;;;;;;;34.13;24.02;;;9.60;99.90;;;;;;6099312;23;20050;-85
2021/10/30 14:24:05;;;;;;;32.22;21.08;;;9.70;99.90;;;;;;6097982;23;20037;-86
2021/10/30 14:26:53;;;;;;;24.98;18.17;;;9.80;99.90;;;;;;6074622;23;20026;-85
2021/10/30 14:29:40;;;;;;;31.23;19.52;;;9.80;99.90;;;;;;6094990;23;20053;-85
2021/10/30 14:32:28;;;;;;;37.05;22.17;;;9.80;99.90;;;;;;6097491;23;20026;-84
2021/10/30 14:35:16;;;;;;;33.58;20.38;;;9.80;99.90;;;;;;6098397;23;20041;-84
2021/10/30 14:38:05;;;;;;;30.88;22.00;;;9.80;99.90;;;;;;6109656;23;20035;-85
2021/10/30 14:40:53;;;;;;;30.63;19.65;;;9.90;99.90;;;;;;6090166;23;20026;-83